メインページ
METAR-TAF:

METAR-TAF

空港 :

ローマ・フィウミチーノ, イタリア

フィウミチーノ空港

緯度: 41-48N, 経度: 012-14E, 海抜: 2m

現時点の気象観測

当レポートは31分前の18:50(UTC)に作成
北東の風 6kt
気温 6°C
湿度 87%
気圧 1004 hPa
視程10km以上
高度3500ftの雲は散在している
高度4600ftの千切れ雲あり
小霧雨

METAR: LIRF 251850Z 04006KT 9999 -DZ SCT035 BKN046 06/04 Q1004 NOSIG

時間: 20:21 (19:21 UTC)

予報

当レポートは2時間21分前の17:00(UTC)に作成
予報は25日の 18時(UTC)から 26日の 24時(UTC)まで有効
北/北東の風 14kt
視程10km以上
高度3000ftの千切れ雲あり
25日の 18時(UTC)から 26日の 01時(UTC)まで一時的に
視程: 4000m
26日の 01時(UTC)から 26日の 06時(UTC)まで一時的に
視程: 3000m

TAF: LIRF 251700Z 2518/2624 02014KT 9999 BKN030 TEMPO 2518/2601 4000 RA TEMPO 2601/2606 3000 SN

4,000以上の空港の気象観測と天気予報(METAR報とTAF報)

利用可能な観測所は地図上に黄色い丸と赤い丸で示す。

丸の上にカーソルを重ねると観測所名を参照できる。

次にクリックすると気象観測と天気予報を参照できる。

マップの切り替え:黒色「×」印の緑ボタンをクリックして拡大、「-」印の緑ボタンをクリックして縮小、緑色の三角印をクリックして隣りの地図に切り替え


METAR-TAF: